sensor_id;sensor_type;location;lat;lon;timestamp;P1;durP1;ratioP1;P2;durP2;ratioP2
56712;SDS011;42589;45.536;9.032;2022-11-12T00:01:56;36.63;;;28.02;;
56712;SDS011;42589;45.536;9.032;2022-11-12T00:04:56;35.83;;;29.55;;
56712;SDS011;42589;45.536;9.032;2022-11-12T00:07:57;46.53;;;31.33;;
56712;SDS011;42589;45.536;9.032;2022-11-12T00:10:58;49.40;;;33.70;;
56712;SDS011;42589;45.536;9.032;2022-11-12T00:13:59;46.65;;;36.15;;
56712;SDS011;42589;45.536;9.032;2022-11-12T00:17:00;50.72;;;34.90;;
56712;SDS011;42589;45.536;9.032;2022-11-12T00:20:01;42.28;;;32.17;;
56712;SDS011;42589;45.536;9.032;2022-11-12T00:23:02;45.28;;;33.33;;
56712;SDS011;42589;45.536;9.032;2022-11-12T00:26:02;44.50;;;32.15;;
56712;SDS011;42589;45.536;9.032;2022-11-12T00:29:02;48.13;;;34.17;;
56712;SDS011;42589;45.536;9.032;2022-11-12T00:32:06;44.10;;;31.88;;
56712;SDS011;42589;45.536;9.032;2022-11-12T00:35:07;76.00;;;37.45;;
56712;SDS011;42589;45.536;9.032;2022-11-12T00:38:11;51.05;;;37.55;;
56712;SDS011;42589;45.536;9.032;2022-11-12T00:41:12;50.67;;;36.83;;
56712;SDS011;42589;45.536;9.032;2022-11-12T00:44:13;71.00;;;38.22;;
56712;SDS011;42589;45.536;9.032;2022-11-12T00:47:15;56.95;;;39.30;;
56712;SDS011;42589;45.536;9.032;2022-11-12T00:50:15;50.92;;;37.30;;
56712;SDS011;42589;45.536;9.032;2022-11-12T00:53:16;124.72;;;41.75;;
56712;SDS011;42589;45.536;9.032;2022-11-12T00:56:16;48.20;;;35.88;;
56712;SDS011;42589;45.536;9.032;2022-11-12T00:59:17;68.72;;;40.03;;
56712;SDS011;42589;45.536;9.032;2022-11-12T01:02:18;61.63;;;37.35;;
56712;SDS011;42589;45.536;9.032;2022-11-12T01:05:19;56.83;;;39.22;;
56712;SDS011;42589;45.536;9.032;2022-11-12T01:08:20;52.42;;;38.47;;
56712;SDS011;42589;45.536;9.032;2022-11-12T01:11:25;52.38;;;37.67;;
56712;SDS011;42589;45.536;9.032;2022-11-12T01:14:26;51.58;;;37.92;;
56712;SDS011;42589;45.536;9.032;2022-11-12T01:17:26;51.35;;;39.03;;
56712;SDS011;42589;45.536;9.032;2022-11-12T01:20:27;49.15;;;38.00;;
56712;SDS011;42589;45.536;9.032;2022-11-12T01:23:28;49.13;;;36.42;;
56712;SDS011;42589;45.536;9.032;2022-11-12T01:26:28;47.70;;;36.28;;
56712;SDS011;42589;45.536;9.032;2022-11-12T01:29:29;42.03;;;33.38;;
56712;SDS011;42589;45.536;9.032;2022-11-12T01:32:32;41.70;;;33.75;;
56712;SDS011;42589;45.536;9.032;2022-11-12T01:35:33;40.30;;;31.58;;
56712;SDS011;42589;45.536;9.032;2022-11-12T01:38:36;37.15;;;30.48;;
56712;SDS011;42589;45.536;9.032;2022-11-12T01:41:37;37.83;;;27.55;;
56712;SDS011;42589;45.536;9.032;2022-11-12T01:44:40;35.08;;;25.60;;
56712;SDS011;42589;45.536;9.032;2022-11-12T01:47:41;30.90;;;23.17;;
56712;SDS011;42589;45.536;9.032;2022-11-12T01:50:44;24.98;;;20.92;;
56712;SDS011;42589;45.536;9.032;2022-11-12T01:53:45;27.83;;;19.58;;
56712;SDS011;42589;45.536;9.032;2022-11-12T01:56:47;22.33;;;18.40;;
56712;SDS011;42589;45.536;9.032;2022-11-12T01:59:49;24.45;;;18.05;;
56712;SDS011;42589;45.536;9.032;2022-11-12T02:02:53;19.95;;;16.60;;
56712;SDS011;42589;45.536;9.032;2022-11-12T02:05:56;18.98;;;16.17;;
56712;SDS011;42589;45.536;9.032;2022-11-12T02:08:57;19.80;;;15.50;;
56712;SDS011;42589;45.536;9.032;2022-11-12T02:11:58;19.55;;;15.48;;
56712;SDS011;42589;45.536;9.032;2022-11-12T02:14:59;19.50;;;15.23;;
56712;SDS011;42589;45.536;9.032;2022-11-12T02:18:01;16.23;;;14.02;;
56712;SDS011;42589;45.536;9.032;2022-11-12T02:21:03;16.80;;;13.90;;
56712;SDS011;42589;45.536;9.032;2022-11-12T02:24:06;16.90;;;13.88;;
56712;SDS011;42589;45.536;9.032;2022-11-12T02:27:25;19.27;;;14.25;;
56712;SDS011;42589;45.536;9.032;2022-11-12T02:30:41;20.25;;;14.40;;
56712;SDS011;42589;45.536;9.032;2022-11-12T02:33:42;16.58;;;14.32;;
56712;SDS011;42589;45.536;9.032;2022-11-12T02:36:43;15.98;;;13.18;;
56712;SDS011;42589;45.536;9.032;2022-11-12T02:39:44;16.95;;;13.05;;
56712;SDS011;42589;45.536;9.032;2022-11-12T02:42:46;15.18;;;12.82;;
56712;SDS011;42589;45.536;9.032;2022-11-12T02:45:47;16.33;;;13.07;;
56712;SDS011;42589;45.536;9.032;2022-11-12T02:48:48;19.98;;;13.32;;
56712;SDS011;42589;45.536;9.032;2022-11-12T02:51:48;17.05;;;13.52;;
56712;SDS011;42589;45.536;9.032;2022-11-12T02:54:49;15.23;;;13.05;;
56712;SDS011;42589;45.536;9.032;2022-11-12T02:57:50;18.35;;;13.35;;
56712;SDS011;42589;45.536;9.032;2022-11-12T03:00:50;16.40;;;13.15;;
56712;SDS011;42589;45.536;9.032;2022-11-12T03:03:51;15.80;;;13.40;;
56712;SDS011;42589;45.536;9.032;2022-11-12T03:06:52;18.48;;;13.20;;
56712;SDS011;42589;45.536;9.032;2022-11-12T03:09:53;17.42;;;13.60;;
56712;SDS011;42589;45.536;9.032;2022-11-12T03:12:55;16.30;;;12.38;;
56712;SDS011;42589;45.536;9.032;2022-11-12T03:15:59;14.75;;;13.07;;
56712;SDS011;42589;45.536;9.032;2022-11-12T03:19:00;13.65;;;11.68;;
56712;SDS011;42589;45.536;9.032;2022-11-12T03:22:01;18.10;;;12.73;;
56712;SDS011;42589;45.536;9.032;2022-11-12T03:25:02;17.42;;;13.32;;
56712;SDS011;42589;45.536;9.032;2022-11-12T03:28:03;17.80;;;13.38;;
56712;SDS011;42589;45.536;9.032;2022-11-12T03:31:05;16.55;;;13.43;;
56712;SDS011;42589;45.536;9.032;2022-11-12T03:34:06;16.48;;;12.70;;
56712;SDS011;42589;45.536;9.032;2022-11-12T03:37:07;15.95;;;12.93;;
56712;SDS011;42589;45.536;9.032;2022-11-12T03:40:08;16.75;;;12.25;;
56712;SDS011;42589;45.536;9.032;2022-11-12T03:43:10;15.73;;;12.98;;
56712;SDS011;42589;45.536;9.032;2022-11-12T03:46:11;16.02;;;11.98;;
56712;SDS011;42589;45.536;9.032;2022-11-12T03:49:11;22.92;;;12.45;;
56712;SDS011;42589;45.536;9.032;2022-11-12T03:52:12;19.23;;;12.00;;
56712;SDS011;42589;45.536;9.032;2022-11-12T03:55:14;15.40;;;11.77;;
56712;SDS011;42589;45.536;9.032;2022-11-12T03:58:16;15.65;;;11.30;;
56712;SDS011;42589;45.536;9.032;2022-11-12T04:01:16;14.10;;;11.32;;
56712;SDS011;42589;45.536;9.032;2022-11-12T04:04:17;14.43;;;11.98;;
56712;SDS011;42589;45.536;9.032;2022-11-12T04:07:18;14.30;;;10.93;;
56712;SDS011;42589;45.536;9.032;2022-11-12T04:10:41;12.80;;;11.27;;
56712;SDS011;42589;45.536;9.032;2022-11-12T04:13:42;13.70;;;10.77;;
56712;SDS011;42589;45.536;9.032;2022-11-12T04:16:44;13.40;;;11.02;;
56712;SDS011;42589;45.536;9.032;2022-11-12T04:20:07;13.02;;;10.40;;
56712;SDS011;42589;45.536;9.032;2022-11-12T04:23:26;13.55;;;10.82;;
56712;SDS011;42589;45.536;9.032;2022-11-12T04:26:27;13.07;;;11.27;;
56712;SDS011;42589;45.536;9.032;2022-11-12T04:29:28;14.73;;;10.88;;
56712;SDS011;42589;45.536;9.032;2022-11-12T04:32:51;12.70;;;11.32;;
56712;SDS011;42589;45.536;9.032;2022-11-12T04:35:53;13.45;;;11.50;;
56712;SDS011;42589;45.536;9.032;2022-11-12T04:38:54;13.00;;;11.25;;
56712;SDS011;42589;45.536;9.032;2022-11-12T04:41:54;14.18;;;12.13;;
56712;SDS011;42589;45.536;9.032;2022-11-12T04:45:13;15.40;;;12.23;;
56712;SDS011;42589;45.536;9.032;2022-11-12T04:48:15;14.75;;;11.98;;
56712;SDS011;42589;45.536;9.032;2022-11-12T04:51:15;18.60;;;12.70;;
56712;SDS011;42589;45.536;9.032;2022-11-12T04:54:34;16.75;;;12.43;;
56712;SDS011;42589;45.536;9.032;2022-11-12T04:57:35;17.70;;;12.63;;
56712;SDS011;42589;45.536;9.032;2022-11-12T05:00:36;15.10;;;12.93;;
56712;SDS011;42589;45.536;9.032;2022-11-12T05:03:36;16.80;;;14.02;;
56712;SDS011;42589;45.536;9.032;2022-11-12T05:06:38;16.58;;;14.18;;
56712;SDS011;42589;45.536;9.032;2022-11-12T05:09:50;18.35;;;14.73;;
56712;SDS011;42589;45.536;9.032;2022-11-12T05:12:51;17.20;;;15.15;;
56712;SDS011;42589;45.536;9.032;2022-11-12T05:15:52;18.90;;;14.18;;
56712;SDS011;42589;45.536;9.032;2022-11-12T05:18:55;18.05;;;15.23;;
56712;SDS011;42589;45.536;9.032;2022-11-12T05:21:57;18.55;;;14.85;;
56712;SDS011;42589;45.536;9.032;2022-11-12T05:25:06;17.02;;;14.38;;
56712;SDS011;42589;45.536;9.032;2022-11-12T05:28:07;17.75;;;14.65;;
56712;SDS011;42589;45.536;9.032;2022-11-12T05:31:08;18.65;;;15.30;;
56712;SDS011;42589;45.536;9.032;2022-11-12T05:34:09;18.95;;;14.73;;
56712;SDS011;42589;45.536;9.032;2022-11-12T05:37:10;19.00;;;13.90;;
56712;SDS011;42589;45.536;9.032;2022-11-12T05:40:11;19.73;;;14.73;;
56712;SDS011;42589;45.536;9.032;2022-11-12T05:43:12;17.33;;;14.55;;
56712;SDS011;42589;45.536;9.032;2022-11-12T05:46:12;22.95;;;15.43;;
56712;SDS011;42589;45.536;9.032;2022-11-12T05:49:13;17.75;;;14.70;;
56712;SDS011;42589;45.536;9.032;2022-11-12T05:52:15;17.52;;;15.10;;
56712;SDS011;42589;45.536;9.032;2022-11-12T05:55:16;19.85;;;14.73;;
56712;SDS011;42589;45.536;9.032;2022-11-12T05:58:17;18.02;;;14.68;;
56712;SDS011;42589;45.536;9.032;2022-11-12T06:01:18;18.17;;;14.80;;
56712;SDS011;42589;45.536;9.032;2022-11-12T06:04:18;18.17;;;14.82;;
56712;SDS011;42589;45.536;9.032;2022-11-12T06:07:19;18.25;;;14.80;;
56712;SDS011;42589;45.536;9.032;2022-11-12T06:10:20;16.90;;;14.15;;
56712;SDS011;42589;45.536;9.032;2022-11-12T06:13:22;16.52;;;13.65;;
56712;SDS011;42589;45.536;9.032;2022-11-12T06:16:23;17.35;;;14.05;;
56712;SDS011;42589;45.536;9.032;2022-11-12T06:19:24;15.52;;;13.93;;
56712;SDS011;42589;45.536;9.032;2022-11-12T06:22:25;18.77;;;14.70;;
56712;SDS011;42589;45.536;9.032;2022-11-12T06:25:26;16.83;;;14.85;;
56712;SDS011;42589;45.536;9.032;2022-11-12T06:28:28;17.20;;;14.90;;
56712;SDS011;42589;45.536;9.032;2022-11-12T06:31:28;18.08;;;15.07;;
56712;SDS011;42589;45.536;9.032;2022-11-12T06:34:29;19.23;;;15.57;;
56712;SDS011;42589;45.536;9.032;2022-11-12T06:37:31;17.60;;;15.68;;
56712;SDS011;42589;45.536;9.032;2022-11-12T06:40:31;20.30;;;16.00;;
56712;SDS011;42589;45.536;9.032;2022-11-12T06:43:32;21.48;;;16.05;;
56712;SDS011;42589;45.536;9.032;2022-11-12T06:46:33;20.15;;;16.42;;
56712;SDS011;42589;45.536;9.032;2022-11-12T06:49:34;19.33;;;15.25;;
56712;SDS011;42589;45.536;9.032;2022-11-12T06:52:35;18.60;;;16.40;;
56712;SDS011;42589;45.536;9.032;2022-11-12T06:55:35;18.70;;;15.38;;
56712;SDS011;42589;45.536;9.032;2022-11-12T06:58:36;17.40;;;15.07;;
56712;SDS011;42589;45.536;9.032;2022-11-12T07:01:37;17.33;;;14.77;;
56712;SDS011;42589;45.536;9.032;2022-11-12T07:04:38;17.63;;;15.15;;
56712;SDS011;42589;45.536;9.032;2022-11-12T07:07:38;19.65;;;14.90;;
56712;SDS011;42589;45.536;9.032;2022-11-12T07:10:39;18.20;;;14.77;;
56712;SDS011;42589;45.536;9.032;2022-11-12T07:13:41;19.08;;;14.88;;
56712;SDS011;42589;45.536;9.032;2022-11-12T07:16:43;16.65;;;14.32;;
56712;SDS011;42589;45.536;9.032;2022-11-12T07:19:44;20.38;;;14.38;;
56712;SDS011;42589;45.536;9.032;2022-11-12T07:22:44;15.63;;;13.48;;
56712;SDS011;42589;45.536;9.032;2022-11-12T07:25:45;16.48;;;13.73;;
56712;SDS011;42589;45.536;9.032;2022-11-12T07:28:46;16.30;;;13.77;;
56712;SDS011;42589;45.536;9.032;2022-11-12T07:31:47;18.08;;;13.27;;
56712;SDS011;42589;45.536;9.032;2022-11-12T07:34:48;15.45;;;12.52;;
56712;SDS011;42589;45.536;9.032;2022-11-12T07:37:49;14.88;;;12.18;;
56712;SDS011;42589;45.536;9.032;2022-11-12T07:40:51;15.68;;;11.23;;
56712;SDS011;42589;45.536;9.032;2022-11-12T07:43:52;15.57;;;12.10;;
56712;SDS011;42589;45.536;9.032;2022-11-12T07:46:52;15.25;;;12.70;;
56712;SDS011;42589;45.536;9.032;2022-11-12T07:49:53;12.68;;;11.27;;
56712;SDS011;42589;45.536;9.032;2022-11-12T07:52:56;14.48;;;12.23;;
56712;SDS011;42589;45.536;9.032;2022-11-12T07:55:58;17.13;;;11.80;;
56712;SDS011;42589;45.536;9.032;2022-11-12T07:58:59;15.85;;;11.15;;
56712;SDS011;42589;45.536;9.032;2022-11-12T08:01:59;14.30;;;10.90;;
56712;SDS011;42589;45.536;9.032;2022-11-12T08:05:00;14.27;;;11.20;;
56712;SDS011;42589;45.536;9.032;2022-11-12T08:08:00;14.05;;;11.52;;
56712;SDS011;42589;45.536;9.032;2022-11-12T08:11:01;13.90;;;11.45;;
56712;SDS011;42589;45.536;9.032;2022-11-12T08:14:02;13.30;;;10.57;;
56712;SDS011;42589;45.536;9.032;2022-11-12T08:17:03;15.20;;;11.02;;
56712;SDS011;42589;45.536;9.032;2022-11-12T08:20:04;14.45;;;11.20;;
56712;SDS011;42589;45.536;9.032;2022-11-12T08:23:06;12.65;;;10.82;;
56712;SDS011;42589;45.536;9.032;2022-11-12T08:26:09;13.43;;;11.32;;
56712;SDS011;42589;45.536;9.032;2022-11-12T08:29:10;13.10;;;11.50;;
56712;SDS011;42589;45.536;9.032;2022-11-12T08:32:11;15.23;;;11.10;;
56712;SDS011;42589;45.536;9.032;2022-11-12T08:35:11;14.00;;;11.30;;
56712;SDS011;42589;45.536;9.032;2022-11-12T08:38:12;14.25;;;11.52;;
56712;SDS011;42589;45.536;9.032;2022-11-12T08:41:13;13.68;;;11.88;;
56712;SDS011;42589;45.536;9.032;2022-11-12T08:44:14;14.05;;;11.48;;
56712;SDS011;42589;45.536;9.032;2022-11-12T08:47:15;13.88;;;11.63;;
56712;SDS011;42589;45.536;9.032;2022-11-12T08:50:17;15.13;;;11.95;;
56712;SDS011;42589;45.536;9.032;2022-11-12T08:53:19;17.52;;;11.70;;
56712;SDS011;42589;45.536;9.032;2022-11-12T08:56:20;16.65;;;12.20;;
56712;SDS011;42589;45.536;9.032;2022-11-12T08:59:21;14.50;;;12.05;;
56712;SDS011;42589;45.536;9.032;2022-11-12T09:02:22;15.90;;;12.43;;
56712;SDS011;42589;45.536;9.032;2022-11-12T09:05:23;15.43;;;12.15;;
56712;SDS011;42589;45.536;9.032;2022-11-12T09:08:24;29.83;;;18.83;;
56712;SDS011;42589;45.536;9.032;2022-11-12T09:11:24;31.65;;;19.60;;
56712;SDS011;42589;45.536;9.032;2022-11-12T09:14:24;28.55;;;18.60;;
56712;SDS011;42589;45.536;9.032;2022-11-12T09:17:25;16.35;;;13.27;;
56712;SDS011;42589;45.536;9.032;2022-11-12T09:20:28;14.73;;;11.05;;
56712;SDS011;42589;45.536;9.032;2022-11-12T09:23:29;14.20;;;10.88;;
56712;SDS011;42589;45.536;9.032;2022-11-12T09:26:30;11.70;;;10.20;;
56712;SDS011;42589;45.536;9.032;2022-11-12T09:29:31;12.00;;;9.70;;
56712;SDS011;42589;45.536;9.032;2022-11-12T09:32:32;15.68;;;10.25;;
56712;SDS011;42589;45.536;9.032;2022-11-12T09:35:33;12.20;;;9.32;;
56712;SDS011;42589;45.536;9.032;2022-11-12T09:38:34;11.88;;;10.13;;
56712;SDS011;42589;45.536;9.032;2022-11-12T09:41:35;13.18;;;10.10;;
56712;SDS011;42589;45.536;9.032;2022-11-12T09:44:37;13.27;;;10.40;;
56712;SDS011;42589;45.536;9.032;2022-11-12T09:47:40;17.77;;;12.32;;
56712;SDS011;42589;45.536;9.032;2022-11-12T09:50:59;25.83;;;18.45;;
56712;SDS011;42589;45.536;9.032;2022-11-12T09:54:08;19.02;;;14.82;;
56712;SDS011;42589;45.536;9.032;2022-11-12T09:57:11;17.48;;;12.98;;
56712;SDS011;42589;45.536;9.032;2022-11-12T10:00:16;10.63;;;9.52;;
56712;SDS011;42589;45.536;9.032;2022-11-12T10:06:20;11.88;;;9.82;;
56712;SDS011;42589;45.536;9.032;2022-11-12T10:09:23;16.40;;;13.23;;
56712;SDS011;42589;45.536;9.032;2022-11-12T10:12:30;13.63;;;9.55;;
56712;SDS011;42589;45.536;9.032;2022-11-12T10:19:03;12.77;;;9.68;;
56712;SDS011;42589;45.536;9.032;2022-11-12T10:25:27;12.43;;;8.98;;
56712;SDS011;42589;45.536;9.032;2022-11-12T10:28:34;14.27;;;9.48;;
56712;SDS011;42589;45.536;9.032;2022-11-12T10:31:37;14.00;;;8.98;;
56712;SDS011;42589;45.536;9.032;2022-11-12T10:34:38;13.02;;;8.40;;
56712;SDS011;42589;45.536;9.032;2022-11-12T10:37:58;11.57;;;8.50;;
56712;SDS011;42589;45.536;9.032;2022-11-12T10:40:59;10.85;;;9.10;;
56712;SDS011;42589;45.536;9.032;2022-11-12T10:44:17;8.93;;;8.02;;
56712;SDS011;42589;45.536;9.032;2022-11-12T10:47:27;10.73;;;7.85;;
56712;SDS011;42589;45.536;9.032;2022-11-12T10:50:39;11.32;;;7.53;;
56712;SDS011;42589;45.536;9.032;2022-11-12T10:53:40;9.40;;;7.75;;
56712;SDS011;42589;45.536;9.032;2022-11-12T10:56:42;10.85;;;8.40;;
56712;SDS011;42589;45.536;9.032;2022-11-12T10:59:44;9.07;;;7.60;;
56712;SDS011;42589;45.536;9.032;2022-11-12T11:02:48;12.95;;;8.30;;
56712;SDS011;42589;45.536;9.032;2022-11-12T11:06:06;11.52;;;7.47;;
56712;SDS011;42589;45.536;9.032;2022-11-12T11:09:55;9.68;;;7.82;;
56712;SDS011;42589;45.536;9.032;2022-11-12T11:16:19;10.52;;;8.90;;
56712;SDS011;42589;45.536;9.032;2022-11-12T11:19:19;13.45;;;8.13;;
56712;SDS011;42589;45.536;9.032;2022-11-12T11:23:22;8.52;;;7.45;;
56712;SDS011;42589;45.536;9.032;2022-11-12T11:25:50;10.65;;;7.03;;
56712;SDS011;42589;45.536;9.032;2022-11-12T11:48:04;10.68;;;6.70;;
56712;SDS011;42589;45.536;9.032;2022-11-12T11:57:54;9.07;;;5.95;;
56712;SDS011;42589;45.536;9.032;2022-11-12T12:07:18;9.27;;;5.70;;
56712;SDS011;42589;45.536;9.032;2022-11-12T12:10:35;9.00;;;6.15;;
56712;SDS011;42589;45.536;9.032;2022-11-12T12:17:07;29.05;;;14.73;;
56712;SDS011;42589;45.536;9.032;2022-11-12T12:20:19;12.33;;;9.43;;
56712;SDS011;42589;45.536;9.032;2022-11-12T12:29:30;12.23;;;10.73;;
56712;SDS011;42589;45.536;9.032;2022-11-12T12:35:35;12.82;;;10.55;;
56712;SDS011;42589;45.536;9.032;2022-11-12T12:38:42;17.00;;;11.32;;
56712;SDS011;42589;45.536;9.032;2022-11-12T12:44:45;15.35;;;11.68;;
56712;SDS011;42589;45.536;9.032;2022-11-12T12:48:05;17.55;;;11.75;;
56712;SDS011;42589;45.536;9.032;2022-11-12T12:51:07;16.30;;;11.20;;
56712;SDS011;42589;45.536;9.032;2022-11-12T12:57:47;16.38;;;11.63;;
56712;SDS011;42589;45.536;9.032;2022-11-12T13:00:49;15.88;;;11.40;;
56712;SDS011;42589;45.536;9.032;2022-11-12T13:04:02;15.27;;;12.50;;
56712;SDS011;42589;45.536;9.032;2022-11-12T13:07:04;15.63;;;12.20;;
56712;SDS011;42589;45.536;9.032;2022-11-12T13:13:25;17.13;;;12.80;;
56712;SDS011;42589;45.536;9.032;2022-11-12T13:17:07;18.17;;;13.48;;
56712;SDS011;42589;45.536;9.032;2022-11-12T13:23:06;19.05;;;13.95;;
56712;SDS011;42589;45.536;9.032;2022-11-12T13:35:33;18.63;;;14.43;;
56712;SDS011;42589;45.536;9.032;2022-11-12T13:38:35;19.95;;;15.23;;
56712;SDS011;42589;45.536;9.032;2022-11-12T13:41:37;20.15;;;15.00;;
56712;SDS011;42589;45.536;9.032;2022-11-12T13:44:57;19.05;;;15.10;;
56712;SDS011;42589;45.536;9.032;2022-11-12T13:47:58;20.35;;;15.57;;
56712;SDS011;42589;45.536;9.032;2022-11-12T13:51:03;20.00;;;16.05;;
56712;SDS011;42589;45.536;9.032;2022-11-12T13:54:23;26.83;;;18.33;;
56712;SDS011;42589;45.536;9.032;2022-11-12T13:57:28;25.15;;;18.02;;
56712;SDS011;42589;45.536;9.032;2022-11-12T14:00:29;26.88;;;19.45;;
56712;SDS011;42589;45.536;9.032;2022-11-12T14:03:35;27.33;;;19.75;;
56712;SDS011;42589;45.536;9.032;2022-11-12T14:06:50;29.35;;;20.35;;
56712;SDS011;42589;45.536;9.032;2022-11-12T14:22:21;30.92;;;21.60;;
56712;SDS011;42589;45.536;9.032;2022-11-12T14:25:22;32.35;;;21.35;;
56712;SDS011;42589;45.536;9.032;2022-11-12T14:31:24;32.03;;;23.45;;
56712;SDS011;42589;45.536;9.032;2022-11-12T14:34:28;30.80;;;23.25;;
56712;SDS011;42589;45.536;9.032;2022-11-12T14:40:47;33.08;;;23.13;;
56712;SDS011;42589;45.536;9.032;2022-11-12T14:43:59;33.75;;;23.33;;
56712;SDS011;42589;45.536;9.032;2022-11-12T14:47:01;30.08;;;22.75;;
56712;SDS011;42589;45.536;9.032;2022-11-12T14:50:02;41.50;;;29.20;;
56712;SDS011;42589;45.536;9.032;2022-11-12T14:53:04;36.03;;;25.95;;
56712;SDS011;42589;45.536;9.032;2022-11-12T14:56:07;35.45;;;26.33;;
56712;SDS011;42589;45.536;9.032;2022-11-12T14:59:09;31.73;;;24.30;;
56712;SDS011;42589;45.536;9.032;2022-11-12T15:02:12;32.47;;;24.25;;
56712;SDS011;42589;45.536;9.032;2022-11-12T15:05:15;32.25;;;23.67;;
56712;SDS011;42589;45.536;9.032;2022-11-12T15:08:30;31.27;;;24.90;;
56712;SDS011;42589;45.536;9.032;2022-11-12T15:11:32;33.30;;;24.50;;
56712;SDS011;42589;45.536;9.032;2022-11-12T15:14:33;34.55;;;25.83;;
56712;SDS011;42589;45.536;9.032;2022-11-12T15:17:35;32.58;;;25.52;;
56712;SDS011;42589;45.536;9.032;2022-11-12T15:20:36;34.50;;;25.83;;
56712;SDS011;42589;45.536;9.032;2022-11-12T15:24:01;32.22;;;24.10;;
56712;SDS011;42589;45.536;9.032;2022-11-12T15:26:58;36.90;;;26.83;;
56712;SDS011;42589;45.536;9.032;2022-11-12T15:36:17;39.35;;;29.67;;
56712;SDS011;42589;45.536;9.032;2022-11-12T15:39:18;39.05;;;28.73;;
56712;SDS011;42589;45.536;9.032;2022-11-12T15:42:26;37.45;;;28.85;;
56712;SDS011;42589;45.536;9.032;2022-11-12T15:45:28;37.95;;;28.17;;
56712;SDS011;42589;45.536;9.032;2022-11-12T15:48:28;36.88;;;29.42;;
56712;SDS011;42589;45.536;9.032;2022-11-12T15:51:30;40.28;;;29.77;;
56712;SDS011;42589;45.536;9.032;2022-11-12T15:54:31;39.85;;;28.40;;
56712;SDS011;42589;45.536;9.032;2022-11-12T15:57:33;40.20;;;31.48;;
56712;SDS011;42589;45.536;9.032;2022-11-12T16:00:37;39.20;;;29.80;;
56712;SDS011;42589;45.536;9.032;2022-11-12T16:03:37;38.88;;;28.20;;
56712;SDS011;42589;45.536;9.032;2022-11-12T16:06:38;39.47;;;29.90;;
56712;SDS011;42589;45.536;9.032;2022-11-12T16:09:39;41.20;;;29.35;;
56712;SDS011;42589;45.536;9.032;2022-11-12T16:12:40;39.15;;;29.25;;
56712;SDS011;42589;45.536;9.032;2022-11-12T16:15:41;41.42;;;29.42;;
56712;SDS011;42589;45.536;9.032;2022-11-12T16:18:42;38.53;;;28.70;;
56712;SDS011;42589;45.536;9.032;2022-11-12T16:21:43;42.58;;;30.58;;
56712;SDS011;42589;45.536;9.032;2022-11-12T16:24:44;45.63;;;32.33;;
56712;SDS011;42589;45.536;9.032;2022-11-12T16:27:45;48.00;;;35.50;;
56712;SDS011;42589;45.536;9.032;2022-11-12T16:30:46;45.03;;;32.95;;
56712;SDS011;42589;45.536;9.032;2022-11-12T16:33:46;44.72;;;33.90;;
56712;SDS011;42589;45.536;9.032;2022-11-12T16:36:47;44.38;;;32.15;;
56712;SDS011;42589;45.536;9.032;2022-11-12T16:39:47;41.95;;;31.70;;
56712;SDS011;42589;45.536;9.032;2022-11-12T16:42:48;43.47;;;31.38;;
56712;SDS011;42589;45.536;9.032;2022-11-12T16:45:49;43.55;;;32.38;;
56712;SDS011;42589;45.536;9.032;2022-11-12T16:48:51;46.17;;;31.48;;
56712;SDS011;42589;45.536;9.032;2022-11-12T16:51:52;46.85;;;33.03;;
56712;SDS011;42589;45.536;9.032;2022-11-12T16:54:53;45.03;;;33.22;;
56712;SDS011;42589;45.536;9.032;2022-11-12T16:57:54;47.25;;;32.85;;
56712;SDS011;42589;45.536;9.032;2022-11-12T17:00:55;41.35;;;32.20;;
56712;SDS011;42589;45.536;9.032;2022-11-12T17:03:55;45.63;;;33.53;;
56712;SDS011;42589;45.536;9.032;2022-11-12T17:06:56;51.90;;;35.30;;
56712;SDS011;42589;45.536;9.032;2022-11-12T17:09:57;48.55;;;35.83;;
56712;SDS011;42589;45.536;9.032;2022-11-12T17:12:58;50.38;;;36.00;;
56712;SDS011;42589;45.536;9.032;2022-11-12T17:15:58;47.25;;;34.22;;
56712;SDS011;42589;45.536;9.032;2022-11-12T17:18:59;48.63;;;35.25;;
56712;SDS011;42589;45.536;9.032;2022-11-12T17:22:00;49.40;;;34.83;;
56712;SDS011;42589;45.536;9.032;2022-11-12T17:25:01;52.80;;;34.63;;
56712;SDS011;42589;45.536;9.032;2022-11-12T17:28:02;46.45;;;33.85;;
56712;SDS011;42589;45.536;9.032;2022-11-12T17:31:08;50.45;;;35.10;;
56712;SDS011;42589;45.536;9.032;2022-11-12T17:34:09;50.30;;;35.72;;
56712;SDS011;42589;45.536;9.032;2022-11-12T17:37:10;50.17;;;35.60;;
56712;SDS011;42589;45.536;9.032;2022-11-12T17:40:11;48.10;;;34.58;;
56712;SDS011;42589;45.536;9.032;2022-11-12T17:43:12;51.58;;;35.28;;
56712;SDS011;42589;45.536;9.032;2022-11-12T17:46:12;48.15;;;34.78;;
56712;SDS011;42589;45.536;9.032;2022-11-12T17:49:13;49.55;;;35.47;;
56712;SDS011;42589;45.536;9.032;2022-11-12T17:52:14;44.28;;;33.17;;
56712;SDS011;42589;45.536;9.032;2022-11-12T17:55:14;53.65;;;37.47;;
56712;SDS011;42589;45.536;9.032;2022-11-12T17:58:16;50.75;;;34.80;;
56712;SDS011;42589;45.536;9.032;2022-11-12T18:01:18;48.95;;;36.00;;
56712;SDS011;42589;45.536;9.032;2022-11-12T18:04:19;49.38;;;34.67;;
56712;SDS011;42589;45.536;9.032;2022-11-12T18:07:19;46.38;;;34.83;;
56712;SDS011;42589;45.536;9.032;2022-11-12T18:10:20;48.80;;;34.92;;
56712;SDS011;42589;45.536;9.032;2022-11-12T18:13:21;47.75;;;35.40;;
56712;SDS011;42589;45.536;9.032;2022-11-12T18:16:24;53.28;;;37.28;;
56712;SDS011;42589;45.536;9.032;2022-11-12T18:19:25;55.35;;;36.22;;
56712;SDS011;42589;45.536;9.032;2022-11-12T18:22:25;49.47;;;37.22;;
56712;SDS011;42589;45.536;9.032;2022-11-12T18:25:26;57.08;;;40.08;;
56712;SDS011;42589;45.536;9.032;2022-11-12T18:28:30;52.67;;;37.95;;
56712;SDS011;42589;45.536;9.032;2022-11-12T18:31:31;53.70;;;38.87;;
56712;SDS011;42589;45.536;9.032;2022-11-12T18:34:31;58.33;;;40.67;;
56712;SDS011;42589;45.536;9.032;2022-11-12T18:37:32;61.03;;;40.60;;
56712;SDS011;42589;45.536;9.032;2022-11-12T18:40:36;56.53;;;39.85;;
56712;SDS011;42589;45.536;9.032;2022-11-12T18:43:40;58.53;;;41.10;;
56712;SDS011;42589;45.536;9.032;2022-11-12T18:46:41;55.45;;;39.10;;
56712;SDS011;42589;45.536;9.032;2022-11-12T18:49:42;55.85;;;39.45;;
56712;SDS011;42589;45.536;9.032;2022-11-12T18:52:42;55.80;;;40.47;;
56712;SDS011;42589;45.536;9.032;2022-11-12T18:55:44;58.30;;;39.78;;
56712;SDS011;42589;45.536;9.032;2022-11-12T18:58:49;53.08;;;38.58;;
56712;SDS011;42589;45.536;9.032;2022-11-12T19:01:52;57.03;;;39.17;;
56712;SDS011;42589;45.536;9.032;2022-11-12T19:04:53;61.13;;;42.00;;
56712;SDS011;42589;45.536;9.032;2022-11-12T19:07:54;56.55;;;41.67;;
56712;SDS011;42589;45.536;9.032;2022-11-12T19:10:56;60.28;;;41.72;;
56712;SDS011;42589;45.536;9.032;2022-11-12T19:13:56;66.43;;;42.35;;
56712;SDS011;42589;45.536;9.032;2022-11-12T19:16:57;57.15;;;39.58;;
56712;SDS011;42589;45.536;9.032;2022-11-12T19:19:58;59.63;;;41.08;;
56712;SDS011;42589;45.536;9.032;2022-11-12T19:22:59;60.22;;;42.28;;
56712;SDS011;42589;45.536;9.032;2022-11-12T19:26:00;56.83;;;41.80;;
56712;SDS011;42589;45.536;9.032;2022-11-12T19:29:01;68.90;;;43.90;;
56712;SDS011;42589;45.536;9.032;2022-11-12T19:32:01;67.80;;;46.53;;
56712;SDS011;42589;45.536;9.032;2022-11-12T19:35:02;61.45;;;45.17;;
56712;SDS011;42589;45.536;9.032;2022-11-12T19:38:04;65.55;;;46.10;;